createdAt,value
2022-11-29T00:00:54.264Z,19.80
2022-11-29T00:01:55.266Z,20.20
2022-11-29T00:02:56.271Z,20.60
2022-11-29T00:03:56.681Z,20.10
2022-11-29T00:04:57.533Z,21.30
2022-11-29T00:05:58.394Z,21.90
2022-11-29T00:06:59.244Z,21.60
2022-11-29T00:08:00.096Z,21.40
2022-11-29T00:09:00.957Z,20.30
2022-11-29T00:10:01.836Z,20.90
2022-11-29T00:11:02.664Z,21.20
2022-11-29T00:12:03.517Z,21.10
2022-11-29T00:13:04.373Z,20.80
2022-11-29T00:14:05.248Z,22.20
2022-11-29T00:15:06.022Z,21.40
2022-11-29T00:16:06.875Z,21.70
2022-11-29T00:17:07.729Z,20.80
2022-11-29T00:18:08.579Z,20.90
2022-11-29T00:19:09.450Z,20.80
2022-11-29T00:20:10.302Z,20.20
2022-11-29T00:21:11.171Z,21.90
2022-11-29T00:22:12.024Z,19.10
2022-11-29T00:23:12.874Z,19.40
2022-11-29T00:24:13.736Z,19.40
2022-11-29T00:25:14.610Z,19.70
2022-11-29T00:26:15.464Z,19.70
2022-11-29T00:27:16.338Z,18.90
2022-11-29T00:28:17.191Z,18.50
2022-11-29T00:29:18.128Z,19.30
2022-11-29T00:30:18.902Z,18.80
2022-11-29T00:31:19.745Z,18.60
2022-11-29T00:32:20.595Z,18.60
2022-11-29T00:33:21.446Z,18.10
2022-11-29T00:34:22.309Z,18.70
2022-11-29T00:35:23.161Z,18.70
2022-11-29T00:36:24.015Z,18.50
2022-11-29T00:37:24.869Z,18.90
2022-11-29T00:38:25.724Z,18.00
2022-11-29T00:39:26.600Z,19.20
2022-11-29T00:40:27.509Z,18.80
2022-11-29T00:41:28.305Z,18.80
2022-11-29T00:42:29.157Z,19.00
2022-11-29T00:43:30.009Z,23.40
2022-11-29T00:44:31.131Z,18.20
2022-11-29T00:45:31.435Z,17.20
2022-11-29T00:46:32.288Z,15.80
2022-11-29T00:47:33.145Z,16.80
2022-11-29T00:48:33.993Z,16.90
2022-11-29T00:49:35.104Z,17.30
2022-11-29T00:50:35.455Z,16.50
2022-11-29T00:51:36.307Z,17.10
2022-11-29T00:52:37.158Z,16.50
2022-11-29T00:53:38.009Z,17.10
2022-11-29T00:54:38.871Z,16.70
2022-11-29T00:55:39.741Z,17.60
2022-11-29T00:56:40.601Z,16.50
2022-11-29T00:57:41.451Z,16.80
2022-11-29T00:58:42.305Z,17.30
2022-11-29T00:59:43.183Z,16.30
2022-11-29T01:00:43.957Z,15.90
2022-11-29T01:01:44.877Z,16.80
2022-11-29T01:02:45.735Z,15.30
2022-11-29T01:03:46.548Z,16.90
2022-11-29T01:04:47.569Z,17.50
2022-11-29T01:05:47.975Z,16.30
2022-11-29T01:06:48.823Z,16.70
2022-11-29T01:07:49.765Z,17.10
2022-11-29T01:08:50.593Z,16.10
2022-11-29T01:09:51.479Z,16.40
2022-11-29T01:10:52.359Z,1.90
2022-11-29T01:11:53.191Z,0.10
2022-11-29T01:12:54.040Z,18.80
2022-11-29T01:13:54.893Z,18.70
2022-11-29T01:14:55.772Z,18.70
2022-11-29T01:15:56.588Z,19.10
2022-11-29T01:16:57.453Z,18.20
2022-11-29T01:17:58.291Z,18.10
2022-11-29T01:18:59.143Z,18.90
2022-11-29T01:20:00.005Z,18.20
2022-11-29T01:21:00.869Z,17.80
2022-11-29T01:22:01.736Z,18.00
2022-11-29T01:23:02.597Z,17.00
2022-11-29T01:24:03.449Z,16.40
2022-11-29T01:25:04.313Z,17.60
2022-11-29T01:26:05.189Z,16.70
2022-11-29T01:27:06.017Z,21.50
2022-11-29T01:28:06.871Z,17.10
2022-11-29T01:29:07.722Z,16.80
2022-11-29T01:30:08.603Z,16.60
2022-11-29T01:31:09.420Z,17.20
2022-11-29T01:32:10.232Z,17.40
2022-11-29T01:33:11.082Z,17.90
2022-11-29T01:34:11.933Z,16.20
2022-11-29T01:35:12.799Z,15.40
2022-11-29T01:36:13.653Z,15.70
2022-11-29T01:37:14.504Z,15.60
2022-11-29T01:38:15.355Z,15.50
2022-11-29T01:39:16.211Z,15.20
2022-11-29T01:40:17.072Z,14.30
2022-11-29T01:41:17.946Z,14.40
2022-11-29T01:42:18.784Z,15.20
2022-11-29T01:43:19.630Z,15.50
2022-11-29T01:44:20.481Z,15.10
2022-11-29T01:45:21.377Z,15.50
2022-11-29T01:46:22.248Z,15.90
2022-11-29T01:47:23.067Z,15.80
2022-11-29T01:48:23.916Z,16.10
2022-11-29T01:49:24.775Z,15.90
2022-11-29T01:50:25.647Z,16.20
2022-11-29T01:51:26.512Z,15.00
2022-11-29T01:52:27.387Z,14.10
2022-11-29T01:53:28.238Z,14.90
2022-11-29T01:54:29.092Z,13.80
2022-11-29T01:55:30.020Z,6.30
2022-11-29T01:56:30.524Z,13.80
2022-11-29T01:57:31.355Z,13.70
2022-11-29T01:58:32.208Z,14.40
2022-11-29T01:59:33.058Z,7.30
2022-11-29T02:00:34.074Z,14.80
2022-11-29T02:01:34.894Z,15.20
2022-11-29T02:02:35.738Z,6.90
2022-11-29T02:03:36.544Z,13.90
2022-11-29T02:04:37.395Z,14.20
2022-11-29T02:05:38.257Z,15.00
2022-11-29T02:06:39.107Z,14.20
2022-11-29T02:07:40.031Z,14.60
2022-11-29T02:08:40.831Z,12.50
2022-11-29T02:09:41.691Z,12.50
2022-11-29T02:10:42.552Z,12.20
2022-11-29T02:11:43.428Z,12.00
2022-11-29T02:12:44.255Z,12.50
2022-11-29T02:13:45.105Z,11.80
2022-11-29T02:14:46.281Z,11.30
2022-11-29T02:15:46.929Z,11.00
2022-11-29T02:16:47.721Z,11.30
2022-11-29T02:17:48.014Z,11.50
2022-11-29T02:18:48.896Z,11.60
2022-11-29T02:19:49.782Z,11.80
2022-11-29T02:20:51.089Z,12.60
2022-11-29T02:21:51.440Z,11.50
2022-11-29T02:22:52.294Z,12.00
2022-11-29T02:23:53.144Z,12.00
2022-11-29T02:24:53.995Z,12.80
2022-11-29T02:25:54.859Z,12.50
2022-11-29T02:26:55.725Z,12.30
2022-11-29T02:27:56.560Z,13.30
2022-11-29T02:28:57.414Z,12.80
2022-11-29T02:29:58.270Z,13.30
2022-11-29T02:30:59.235Z,13.10
2022-11-29T02:32:00.025Z,13.00
2022-11-29T02:33:00.889Z,12.90
2022-11-29T02:34:01.743Z,13.10
2022-11-29T02:35:02.609Z,12.60
2022-11-29T02:36:03.471Z,13.10
2022-11-29T02:37:10.067Z,13.20
2022-11-29T02:38:06.086Z,12.60
2022-11-29T02:39:05.941Z,26.20
2022-11-29T02:40:06.794Z,21.70
2022-11-29T02:41:07.653Z,18.50
2022-11-29T02:42:08.531Z,20.20
2022-11-29T02:43:09.383Z,16.40
2022-11-29T02:44:10.237Z,16.40
2022-11-29T02:45:11.087Z,18.80
2022-11-29T02:46:12.111Z,15.90
2022-11-29T02:47:12.457Z,15.70
2022-11-29T02:48:13.309Z,15.50
2022-11-29T02:49:14.164Z,14.70
2022-11-29T02:50:15.024Z,16.00
2022-11-29T02:51:15.887Z,16.50
2022-11-29T02:52:16.738Z,15.80
2022-11-29T02:53:17.591Z,16.10
2022-11-29T02:54:18.457Z,105.40
2022-11-29T02:55:19.297Z,22.10
2022-11-29T02:56:20.159Z,23.00
2022-11-29T02:57:21.071Z,24.00
2022-11-29T02:58:21.861Z,24.90
2022-11-29T02:59:22.716Z,17.20
2022-11-29T03:00:23.567Z,40.80
2022-11-29T03:01:24.660Z,22.10
2022-11-29T03:02:24.983Z,18.60
2022-11-29T03:03:25.829Z,17.30
2022-11-29T03:04:26.681Z,19.50
2022-11-29T03:05:27.535Z,19.30
2022-11-29T03:06:28.583Z,16.70
2022-11-29T03:07:28.973Z,17.90
2022-11-29T03:08:29.790Z,16.30
2022-11-29T03:09:30.648Z,15.20
2022-11-29T03:10:31.498Z,16.10
2022-11-29T03:11:32.361Z,17.00
2022-11-29T03:12:33.233Z,16.00
2022-11-29T03:13:34.063Z,16.20
2022-11-29T03:14:34.914Z,999.90
2022-11-29T03:15:35.798Z,999.90
2022-11-29T03:16:41.440Z,999.90
2022-11-29T03:17:38.415Z,999.90
2022-11-29T03:18:38.287Z,999.90
2022-11-29T03:19:39.141Z,999.90
2022-11-29T03:20:39.997Z,74.30
2022-11-29T03:21:40.857Z,15.80
2022-11-29T03:22:41.709Z,16.60
2022-11-29T03:23:42.570Z,18.40
2022-11-29T03:24:43.835Z,17.40
2022-11-29T03:25:44.305Z,16.20
2022-11-29T03:26:45.167Z,18.10
2022-11-29T03:27:46.041Z,17.10
2022-11-29T03:28:46.875Z,28.20
2022-11-29T03:29:47.723Z,17.40
2022-11-29T03:30:48.599Z,17.70
2022-11-29T03:31:49.455Z,17.20
2022-11-29T03:32:50.233Z,18.10
2022-11-29T03:33:51.088Z,18.70
2022-11-29T03:34:56.937Z,19.10
2022-11-29T03:35:53.701Z,19.10
2022-11-29T03:36:53.582Z,23.50
2022-11-29T03:37:54.445Z,42.00
2022-11-29T03:38:55.409Z,18.70
2022-11-29T03:39:56.260Z,32.20
2022-11-29T03:40:57.113Z,20.10
2022-11-29T03:41:57.978Z,17.20
2022-11-29T03:42:58.850Z,24.30
2022-11-29T03:43:59.680Z,18.00
2022-11-29T03:45:00.529Z,18.90
2022-11-29T03:46:01.471Z,18.10
2022-11-29T03:47:02.673Z,22.50
2022-11-29T03:48:02.939Z,20.20
2022-11-29T03:49:03.799Z,25.00
2022-11-29T03:50:04.735Z,27.00
2022-11-29T03:51:05.584Z,18.00
2022-11-29T03:52:06.586Z,21.60
2022-11-29T03:53:06.943Z,20.10
2022-11-29T03:54:07.797Z,18.30
2022-11-29T03:55:08.676Z,21.30
2022-11-29T03:56:09.523Z,18.40
2022-11-29T03:57:10.581Z,19.30
2022-11-29T03:58:10.970Z,571.10
2022-11-29T03:59:11.795Z,799.60
2022-11-29T04:00:12.649Z,797.70
2022-11-29T04:01:13.548Z,818.10
2022-11-29T04:02:14.454Z,811.20
2022-11-29T04:03:15.282Z,801.50
2022-11-29T04:04:16.136Z,772.50
2022-11-29T04:05:16.987Z,736.30
2022-11-29T04:06:17.839Z,393.30
2022-11-29T04:07:18.779Z,16.30
2022-11-29T04:08:19.584Z,16.30
2022-11-29T04:09:20.460Z,15.60
2022-11-29T04:10:21.296Z,16.10
2022-11-29T04:11:22.187Z,16.20
2022-11-29T04:12:23.050Z,16.40
2022-11-29T04:13:23.923Z,17.10
2022-11-29T04:14:24.755Z,17.40
2022-11-29T04:15:25.605Z,17.90
2022-11-29T04:16:26.458Z,18.40
2022-11-29T04:17:27.350Z,11.10
2022-11-29T04:18:28.114Z,17.40
2022-11-29T04:19:28.965Z,18.20
2022-11-29T04:20:29.827Z,17.30
2022-11-29T04:21:30.676Z,18.10
2022-11-29T04:22:31.546Z,17.90
2022-11-29T04:23:32.398Z,17.60
2022-11-29T04:24:33.252Z,17.80
2022-11-29T04:25:34.105Z,21.10
2022-11-29T04:26:35.393Z,18.10
2022-11-29T04:27:36.086Z,17.30
2022-11-29T04:28:36.457Z,20.60
2022-11-29T04:29:37.292Z,22.70
2022-11-29T04:30:38.145Z,21.80
2022-11-29T04:31:39.002Z,22.40
2022-11-29T04:32:39.992Z,18.50
2022-11-29T04:33:40.775Z,20.10
2022-11-29T04:34:41.953Z,21.50
2022-11-29T04:35:42.459Z,17.50
2022-11-29T04:36:43.309Z,17.00
2022-11-29T04:37:44.172Z,19.40
2022-11-29T04:38:45.024Z,18.90
2022-11-29T04:39:45.890Z,18.20
2022-11-29T04:40:46.751Z,17.40
2022-11-29T04:41:47.596Z,18.70
2022-11-29T04:42:48.458Z,17.00
2022-11-29T04:43:49.329Z,17.30
2022-11-29T04:44:50.165Z,18.20
2022-11-29T04:45:51.028Z,17.80
2022-11-29T04:46:51.878Z,17.10
2022-11-29T04:47:53.102Z,20.30
2022-11-29T04:48:53.386Z,17.70
2022-11-29T04:49:54.245Z,54.50
2022-11-29T04:50:55.094Z,25.10
2022-11-29T04:51:55.947Z,17.20
2022-11-29T04:52:56.818Z,17.90
2022-11-29T04:53:57.670Z,18.60
2022-11-29T04:54:58.528Z,20.60
2022-11-29T04:55:59.379Z,24.20
2022-11-29T04:57:00.246Z,50.40
2022-11-29T04:58:01.103Z,54.50
2022-11-29T04:59:01.979Z,80.60
2022-11-29T05:00:02.809Z,27.30
2022-11-29T05:01:03.664Z,17.30
2022-11-29T05:02:04.552Z,17.40
2022-11-29T05:03:05.637Z,64.20
2022-11-29T05:04:05.933Z,21.20
2022-11-29T05:05:06.789Z,20.60
2022-11-29T05:06:07.642Z,21.80
2022-11-29T05:07:08.494Z,22.60
2022-11-29T05:08:09.354Z,21.00
2022-11-29T05:09:10.207Z,21.60
2022-11-29T05:10:11.080Z,22.10
2022-11-29T05:11:11.933Z,22.60
2022-11-29T05:12:12.796Z,24.10
2022-11-29T05:13:13.658Z,23.70
2022-11-29T05:14:14.534Z,23.20
2022-11-29T05:15:15.364Z,25.90
2022-11-29T05:16:16.250Z,27.20
2022-11-29T05:17:17.067Z,25.50
2022-11-29T05:18:17.945Z,22.10
2022-11-29T05:19:18.730Z,25.40
2022-11-29T05:20:19.583Z,24.30
2022-11-29T05:21:20.437Z,23.20
2022-11-29T05:22:21.290Z,21.70
2022-11-29T05:23:22.155Z,21.90
2022-11-29T05:24:23.010Z,23.10
2022-11-29T05:25:23.875Z,18.60
2022-11-29T05:26:24.727Z,19.10
2022-11-29T05:27:25.579Z,18.20
2022-11-29T05:28:26.440Z,20.30
2022-11-29T05:29:27.329Z,18.40
2022-11-29T05:30:28.166Z,17.50
2022-11-29T05:31:29.066Z,17.70
2022-11-29T05:32:29.891Z,17.20
2022-11-29T05:33:30.770Z,18.30
2022-11-29T05:34:34.898Z,16.40
2022-11-29T05:35:32.457Z,22.40
2022-11-29T05:36:33.309Z,13.70
2022-11-29T05:37:34.162Z,12.80
2022-11-29T05:38:35.024Z,13.40
2022-11-29T05:39:35.876Z,14.20
2022-11-29T05:40:36.727Z,13.10
2022-11-29T05:41:37.578Z,14.10
2022-11-29T05:42:38.429Z,14.30
2022-11-29T05:43:39.292Z,14.90
2022-11-29T05:44:40.165Z,14.00
2022-11-29T05:45:40.998Z,15.20
2022-11-29T05:46:41.859Z,14.20
2022-11-29T05:47:42.697Z,15.50
2022-11-29T05:48:43.588Z,15.40
2022-11-29T05:49:44.385Z,14.30
2022-11-29T05:50:45.236Z,14.40
2022-11-29T05:51:46.098Z,14.70
2022-11-29T05:52:46.947Z,14.50
2022-11-29T05:53:48.067Z,14.80
2022-11-29T05:54:48.420Z,15.70
2022-11-29T05:55:49.272Z,16.40
2022-11-29T05:56:50.124Z,18.50
2022-11-29T05:57:50.978Z,21.10
2022-11-29T05:58:51.841Z,21.80
2022-11-29T05:59:52.710Z,19.80
2022-11-29T06:00:53.551Z,21.20
2022-11-29T06:01:54.502Z,20.50
2022-11-29T06:02:55.383Z,22.10
2022-11-29T06:03:56.208Z,20.80
2022-11-29T06:04:56.977Z,23.10
2022-11-29T06:05:57.833Z,23.00
2022-11-29T06:06:58.685Z,23.10
2022-11-29T06:07:59.623Z,22.50
2022-11-29T06:09:00.566Z,25.00
2022-11-29T06:10:01.990Z,22.50
2022-11-29T06:11:01.506Z,21.90
2022-11-29T06:12:02.359Z,21.90
2022-11-29T06:13:03.209Z,21.20
2022-11-29T06:14:04.565Z,19.40
2022-11-29T06:15:04.934Z,19.60
2022-11-29T06:16:05.790Z,20.20
2022-11-29T06:17:06.620Z,22.50
2022-11-29T06:18:07.471Z,20.50
2022-11-29T06:19:08.691Z,19.50
2022-11-29T06:20:08.959Z,20.20
2022-11-29T06:21:09.810Z,18.80
2022-11-29T06:22:10.662Z,21.00
2022-11-29T06:23:11.512Z,19.60
2022-11-29T06:24:12.381Z,20.00
2022-11-29T06:25:13.227Z,18.40
2022-11-29T06:26:14.080Z,19.40
2022-11-29T06:27:14.932Z,19.30
2022-11-29T06:28:15.782Z,18.60
2022-11-29T06:29:16.643Z,19.50
2022-11-29T06:30:17.519Z,17.90
2022-11-29T06:31:18.385Z,19.80
2022-11-29T06:32:19.211Z,21.70
2022-11-29T06:33:20.080Z,17.90
2022-11-29T06:34:23.999Z,19.80
2022-11-29T06:35:22.811Z,19.00
2022-11-29T06:36:22.666Z,18.00
2022-11-29T06:37:23.519Z,17.50
2022-11-29T06:38:24.379Z,17.70
2022-11-29T06:39:25.243Z,18.10
2022-11-29T06:40:26.101Z,17.30
2022-11-29T06:41:26.949Z,18.60
2022-11-29T06:42:27.809Z,17.60
2022-11-29T06:43:28.659Z,18.00
2022-11-29T06:44:29.571Z,18.60
2022-11-29T06:45:30.443Z,17.10
2022-11-29T06:46:31.311Z,17.60
2022-11-29T06:47:32.129Z,17.90
2022-11-29T06:48:32.980Z,17.20
2022-11-29T06:49:34.096Z,15.80
2022-11-29T06:50:34.367Z,16.70
2022-11-29T06:51:35.220Z,17.10
2022-11-29T06:52:36.073Z,17.00
2022-11-29T06:53:36.929Z,16.80
2022-11-29T06:54:37.795Z,16.80
2022-11-29T06:55:38.646Z,18.00
2022-11-29T06:56:40.883Z,18.40
2022-11-29T06:57:40.309Z,18.40
2022-11-29T06:58:41.162Z,16.80
2022-11-29T06:59:42.025Z,15.80
2022-11-29T07:00:42.979Z,14.90
2022-11-29T07:01:43.843Z,16.20
2022-11-29T07:02:44.662Z,15.80
2022-11-29T07:03:45.515Z,15.00
2022-11-29T07:04:46.861Z,14.90
2022-11-29T07:05:47.226Z,14.20
2022-11-29T07:06:48.049Z,14.90
2022-11-29T07:07:48.981Z,15.00
2022-11-29T07:08:49.773Z,15.50
2022-11-29T07:09:51.058Z,14.20
2022-11-29T07:10:51.417Z,14.80
2022-11-29T07:11:52.267Z,14.70
2022-11-29T07:12:53.127Z,78.40
2022-11-29T07:13:53.979Z,213.00
2022-11-29T07:14:55.058Z,220.70
2022-11-29T07:15:55.510Z,191.30
2022-11-29T07:16:57.599Z,186.10
2022-11-29T07:17:57.011Z,190.20
2022-11-29T07:18:57.863Z,164.00
2022-11-29T07:19:58.814Z,159.30
2022-11-29T07:20:59.577Z,131.70
2022-11-29T07:22:00.430Z,108.80
2022-11-29T07:23:01.285Z,90.00
2022-11-29T07:24:02.145Z,73.90
2022-11-29T07:25:03.057Z,99.60
2022-11-29T07:26:03.938Z,236.00
2022-11-29T07:27:04.792Z,258.20
2022-11-29T07:28:05.643Z,123.70
2022-11-29T07:29:06.496Z,56.00
2022-11-29T07:30:07.361Z,39.80
2022-11-29T07:31:08.256Z,26.50
2022-11-29T07:32:09.075Z,22.20
2022-11-29T07:33:09.932Z,19.70
2022-11-29T07:34:10.786Z,18.90
2022-11-29T07:35:11.666Z,17.60
2022-11-29T07:36:12.439Z,20.40
2022-11-29T07:37:13.294Z,18.40
2022-11-29T07:38:14.153Z,16.90
2022-11-29T07:39:15.009Z,17.30
2022-11-29T07:40:15.867Z,17.70
2022-11-29T07:41:16.720Z,16.50
2022-11-29T07:42:17.571Z,17.00
2022-11-29T07:43:18.449Z,16.80
2022-11-29T07:44:19.290Z,16.50
2022-11-29T07:45:20.577Z,16.70
2022-11-29T07:46:21.027Z,17.20
2022-11-29T07:47:21.856Z,16.10
2022-11-29T07:48:22.724Z,16.70
2022-11-29T07:49:23.580Z,16.00
2022-11-29T07:50:24.471Z,15.70
2022-11-29T07:51:25.247Z,15.60
2022-11-29T07:52:26.099Z,16.10
2022-11-29T07:53:27.524Z,17.70
2022-11-29T07:54:27.857Z,16.40
2022-11-29T07:55:29.053Z,20.30
2022-11-29T07:56:29.422Z,17.60
2022-11-29T07:57:30.307Z,17.80
2022-11-29T07:58:31.181Z,16.40
2022-11-29T07:59:31.990Z,16.50
2022-11-29T08:00:32.931Z,15.70
2022-11-29T08:01:33.777Z,16.50
2022-11-29T08:02:34.671Z,20.00
2022-11-29T08:03:35.531Z,16.50
2022-11-29T08:04:36.376Z,15.30
2022-11-29T08:05:37.266Z,14.90
2022-11-29T08:06:38.032Z,16.30
2022-11-29T08:07:38.915Z,15.50
2022-11-29T08:08:43.956Z,16.10
2022-11-29T08:09:40.685Z,26.10
2022-11-29T08:10:41.554Z,243.90
2022-11-29T08:11:42.400Z,285.70
2022-11-29T08:12:43.257Z,265.90
2022-11-29T08:13:44.109Z,243.50
2022-11-29T08:14:45.284Z,211.30
2022-11-29T08:15:45.800Z,172.50
2022-11-29T08:16:46.753Z,147.50
2022-11-29T08:17:47.540Z,126.70
2022-11-29T08:18:48.407Z,232.10
2022-11-29T08:19:49.244Z,333.60
2022-11-29T08:20:50.581Z,171.60
2022-11-29T08:21:50.845Z,85.30
2022-11-29T08:22:51.698Z,60.40
2022-11-29T08:23:52.555Z,33.00
2022-11-29T08:24:53.405Z,25.30
2022-11-29T08:25:54.553Z,22.40
2022-11-29T08:26:54.909Z,18.90
2022-11-29T08:27:55.759Z,19.00
2022-11-29T08:28:56.686Z,17.70
2022-11-29T08:29:57.567Z,17.10
2022-11-29T08:30:58.552Z,16.00
2022-11-29T08:31:59.519Z,15.60
2022-11-29T08:33:00.341Z,15.00
2022-11-29T08:34:01.187Z,14.80
2022-11-29T08:35:02.057Z,15.40
2022-11-29T08:36:02.925Z,14.30
2022-11-29T08:37:03.790Z,14.10
2022-11-29T08:38:04.641Z,14.50
2022-11-29T08:39:09.179Z,17.20
2022-11-29T08:40:06.401Z,19.90
2022-11-29T08:41:07.563Z,15.10
2022-11-29T08:42:07.922Z,14.50
2022-11-29T08:43:08.773Z,14.70
2022-11-29T08:44:09.629Z,14.70
2022-11-29T08:45:10.480Z,14.50
2022-11-29T08:46:17.961Z,14.00
2022-11-29T08:47:13.358Z,14.20
2022-11-29T08:48:13.189Z,14.50
2022-11-29T08:49:14.059Z,13.30
2022-11-29T08:50:14.915Z,14.10
2022-11-29T08:51:16.097Z,13.80
2022-11-29T08:52:16.368Z,13.60
2022-11-29T08:53:17.234Z,13.40
2022-11-29T08:54:18.089Z,12.70
2022-11-29T08:55:18.944Z,12.90
2022-11-29T08:58:22.075Z,14.00
2022-11-29T08:59:21.926Z,13.40
2022-11-29T09:00:22.883Z,12.90
2022-11-29T09:01:24.121Z,12.60
2022-11-29T09:02:24.563Z,14.20
2022-11-29T09:03:25.350Z,15.70
2022-11-29T09:04:26.213Z,16.50
2022-11-29T09:05:27.060Z,14.70
2022-11-29T09:06:27.940Z,15.30
2022-11-29T09:07:28.752Z,14.00
2022-11-29T09:08:29.577Z,18.20
2022-11-29T09:09:30.430Z,13.90
2022-11-29T09:10:31.289Z,14.30
2022-11-29T09:11:32.548Z,14.20
2022-11-29T09:12:32.918Z,15.20
2022-11-29T09:13:33.770Z,13.80
2022-11-29T09:14:34.622Z,13.40
2022-11-29T09:15:35.476Z,14.00
2022-11-29T09:16:36.611Z,14.40
2022-11-29T09:17:36.937Z,14.20
2022-11-29T09:18:37.793Z,13.20
2022-11-29T09:19:38.650Z,14.30
2022-11-29T09:20:39.511Z,13.60
2022-11-29T09:21:40.627Z,14.80
2022-11-29T09:22:40.901Z,15.60
2022-11-29T09:23:41.767Z,15.70
2022-11-29T09:24:42.980Z,15.90
2022-11-29T09:25:43.375Z,15.80
2022-11-29T09:26:44.237Z,16.60
2022-11-29T09:27:45.111Z,19.90
2022-11-29T09:28:45.977Z,20.40
2022-11-29T09:29:46.837Z,19.60
2022-11-29T09:30:47.688Z,20.20
2022-11-29T09:31:48.643Z,19.40
2022-11-29T09:32:49.492Z,19.30
2022-11-29T09:33:50.333Z,20.70
2022-11-29T09:34:51.186Z,20.10
2022-11-29T09:35:52.037Z,20.40
2022-11-29T09:36:53.063Z,21.90
2022-11-29T09:37:53.827Z,22.00
2022-11-29T09:38:54.679Z,24.20
2022-11-29T09:39:55.532Z,19.80
2022-11-29T09:40:56.386Z,19.20
2022-11-29T09:41:57.544Z,19.80
2022-11-29T09:42:57.895Z,17.50
2022-11-29T09:43:58.765Z,17.80
2022-11-29T09:44:59.618Z,16.70
2022-11-29T09:46:00.509Z,15.30
2022-11-29T09:47:01.359Z,15.50
2022-11-29T09:48:02.247Z,16.90
2022-11-29T09:49:03.069Z,15.60
2022-11-29T09:50:03.573Z,14.90
2022-11-29T09:51:04.425Z,14.50
2022-11-29T09:52:05.374Z,14.90
2022-11-29T09:53:06.156Z,14.80
2022-11-29T09:54:07.012Z,14.60
2022-11-29T09:55:07.873Z,15.20
2022-11-29T09:56:08.766Z,15.60
2022-11-29T09:57:11.011Z,16.80
2022-11-29T09:58:10.441Z,16.50
2022-11-29T09:59:11.365Z,17.80
2022-11-29T10:00:12.222Z,16.40
2022-11-29T10:01:13.130Z,17.20
2022-11-29T10:02:18.394Z,15.00
2022-11-29T10:03:15.733Z,13.60
2022-11-29T10:04:15.570Z,13.90
2022-11-29T10:05:16.424Z,13.10
2022-11-29T10:06:17.275Z,12.60
2022-11-29T10:07:18.204Z,13.50
2022-11-29T10:08:19.059Z,12.50
2022-11-29T10:09:19.913Z,13.80
2022-11-29T10:10:20.772Z,13.70
2022-11-29T10:11:21.670Z,12.60
2022-11-29T10:12:22.533Z,13.20
2022-11-29T10:13:23.386Z,13.40
2022-11-29T10:14:24.239Z,15.00
2022-11-29T10:15:25.095Z,13.10
2022-11-29T10:16:26.193Z,12.50
2022-11-29T10:17:26.547Z,14.20
2022-11-29T10:18:27.445Z,13.80
2022-11-29T10:19:28.285Z,15.00
2022-11-29T10:20:29.141Z,14.40
2022-11-29T10:21:30.006Z,13.40
2022-11-29T10:22:30.960Z,12.90
2022-11-29T10:23:31.720Z,13.40
2022-11-29T10:24:32.574Z,13.00
2022-11-29T10:25:33.427Z,13.20
2022-11-29T10:26:35.563Z,13.20
2022-11-29T10:27:35.040Z,14.00
2022-11-29T10:28:35.895Z,12.70
2022-11-29T10:29:36.772Z,14.00
2022-11-29T10:30:37.669Z,13.70
2022-11-29T10:31:38.478Z,14.00
2022-11-29T10:32:39.539Z,12.90
2022-11-29T10:33:39.916Z,13.70
2022-11-29T10:34:40.747Z,13.50
2022-11-29T10:35:41.605Z,12.70
2022-11-29T10:36:42.458Z,13.30
2022-11-29T10:37:52.224Z,13.00
2022-11-29T10:38:45.068Z,12.70
2022-11-29T10:39:44.925Z,13.10
2022-11-29T10:40:45.776Z,13.60
2022-11-29T10:41:46.638Z,13.50
2022-11-29T10:42:47.543Z,13.80
2022-11-29T10:43:48.396Z,13.60
2022-11-29T10:44:49.250Z,13.70
2022-11-29T10:45:50.378Z,14.40
2022-11-29T10:46:50.854Z,16.80
2022-11-29T10:47:51.717Z,15.60
2022-11-29T10:48:52.599Z,14.30
2022-11-29T10:49:53.435Z,13.50
2022-11-29T10:50:54.286Z,13.40
2022-11-29T10:51:55.146Z,14.00
2022-11-29T10:53:00.046Z,14.50
2022-11-29T10:53:56.528Z,13.80
2022-11-29T10:54:57.481Z,14.70
2022-11-29T10:55:58.262Z,14.00
2022-11-29T10:56:59.129Z,13.50
2022-11-29T10:58:00.035Z,16.40
2022-11-29T10:59:00.903Z,15.80
2022-11-29T11:00:01.783Z,14.60
2022-11-29T11:01:02.732Z,14.10
2022-11-29T11:02:03.562Z,14.60
2022-11-29T11:03:04.536Z,14.00
2022-11-29T11:04:05.445Z,13.30
2022-11-29T11:05:06.276Z,14.40
2022-11-29T11:06:07.177Z,14.70
2022-11-29T11:07:08.033Z,13.90
2022-11-29T11:08:08.921Z,24.50
2022-11-29T11:09:09.724Z,19.20
2022-11-29T11:10:10.577Z,16.00
2022-11-29T11:11:11.433Z,13.80
2022-11-29T11:12:12.287Z,21.00
2022-11-29T11:13:13.534Z,16.00
2022-11-29T11:14:13.887Z,15.20
2022-11-29T11:15:14.751Z,15.90
2022-11-29T11:16:15.731Z,16.00
2022-11-29T11:17:16.553Z,14.90
2022-11-29T11:18:17.540Z,18.60
2022-11-29T11:19:18.413Z,23.10
2022-11-29T11:20:19.242Z,17.10
2022-11-29T11:21:20.095Z,20.90
2022-11-29T11:22:20.954Z,25.70
2022-11-29T11:23:21.829Z,32.00
2022-11-29T11:24:22.616Z,19.20
2022-11-29T11:25:23.461Z,25.70
2022-11-29T11:26:24.314Z,25.80
2022-11-29T11:27:25.169Z,14.30
2022-11-29T11:28:26.039Z,14.20
2022-11-29T11:29:26.893Z,14.40
2022-11-29T11:30:27.890Z,15.20
2022-11-29T11:31:28.699Z,15.60
2022-11-29T11:32:29.564Z,15.90
2022-11-29T11:33:30.532Z,16.40
2022-11-29T11:34:31.414Z,22.20
2022-11-29T11:35:32.244Z,16.80
2022-11-29T11:36:33.108Z,14.90
2022-11-29T11:37:33.959Z,15.10
2022-11-29T11:38:35.147Z,15.50
2022-11-29T11:39:35.436Z,15.10
2022-11-29T11:40:36.318Z,15.20
2022-11-29T11:41:37.238Z,15.60
2022-11-29T11:42:38.086Z,15.50
2022-11-29T11:43:39.122Z,15.50
2022-11-29T11:44:47.765Z,16.00
2022-11-29T11:45:41.205Z,15.60
2022-11-29T11:46:41.108Z,14.90
2022-11-29T11:47:41.914Z,15.40
2022-11-29T11:48:43.031Z,15.60
2022-11-29T11:49:43.401Z,15.60
2022-11-29T11:50:44.241Z,15.80
2022-11-29T11:51:45.099Z,16.30
2022-11-29T11:52:50.326Z,15.10
2022-11-29T11:53:46.817Z,15.30
2022-11-29T11:54:47.588Z,15.60
2022-11-29T11:55:48.451Z,15.60
2022-11-29T11:56:49.300Z,15.30
2022-11-29T11:57:50.149Z,15.20
2022-11-29T11:58:51.010Z,14.70
2022-11-29T11:59:51.874Z,14.80
2022-11-29T12:01:08.103Z,14.00
2022-11-29T12:01:54.478Z,14.90
2022-11-29T12:02:54.439Z,15.20
2022-11-29T12:03:55.257Z,13.70
2022-11-29T12:04:56.155Z,15.10
2022-11-29T12:05:56.982Z,17.50
2022-11-29T12:06:57.811Z,17.70
2022-11-29T12:08:07.829Z,16.60
2022-11-29T12:09:00.654Z,14.50
2022-11-29T12:10:00.008Z,14.10
2022-11-29T12:11:06.871Z,14.90
2022-11-29T12:12:02.619Z,15.20
2022-11-29T12:13:02.482Z,15.10
2022-11-29T12:14:03.530Z,15.40
2022-11-29T12:15:03.915Z,16.80
2022-11-29T12:16:04.895Z,20.00
2022-11-29T12:17:05.280Z,15.40
2022-11-29T12:18:06.167Z,16.70
2022-11-29T12:19:07.025Z,17.90
2022-11-29T12:20:07.903Z,15.40
2022-11-29T12:21:08.753Z,17.20
2022-11-29T12:22:09.614Z,15.10
2022-11-29T12:23:10.479Z,15.10
2022-11-29T12:24:11.467Z,16.40
2022-11-29T12:25:12.249Z,15.90
2022-11-29T12:26:19.147Z,16.30
2022-11-29T12:27:14.974Z,16.60
2022-11-29T12:28:20.123Z,16.50
2022-11-29T12:29:17.027Z,15.60
2022-11-29T12:30:16.389Z,15.10
2022-11-29T12:31:17.278Z,16.00
2022-11-29T12:32:18.105Z,17.30
2022-11-29T12:33:18.966Z,18.30
2022-11-29T12:34:22.607Z,17.00
2022-11-29T12:35:20.705Z,17.40
2022-11-29T12:36:21.537Z,17.50
2022-11-29T12:37:22.396Z,19.90
2022-11-29T12:38:23.276Z,18.20
2022-11-29T12:39:24.254Z,17.90
2022-11-29T12:40:25.043Z,17.50
2022-11-29T12:41:25.903Z,18.10
2022-11-29T12:42:26.756Z,18.10
2022-11-29T12:43:27.623Z,18.00
2022-11-29T12:44:28.483Z,18.00
2022-11-29T12:45:29.340Z,21.40
2022-11-29T12:46:30.226Z,18.40
2022-11-29T12:47:38.377Z,18.50
2022-11-29T12:48:32.804Z,18.50
2022-11-29T12:49:32.667Z,17.30
2022-11-29T12:50:33.550Z,16.40
2022-11-29T12:51:34.369Z,17.70
2022-11-29T12:52:35.277Z,20.00
2022-11-29T12:53:36.139Z,18.90
2022-11-29T12:54:37.194Z,21.40
2022-11-29T12:55:37.962Z,20.60
2022-11-29T12:56:38.809Z,18.90
2022-11-29T12:57:39.663Z,18.80
2022-11-29T12:58:45.630Z,19.80
2022-11-29T12:59:42.284Z,18.30
2022-11-29T13:00:42.134Z,18.90
2022-11-29T13:01:43.065Z,20.20
2022-11-29T13:02:43.946Z,20.20
2022-11-29T13:03:44.765Z,20.10
2022-11-29T13:04:46.740Z,22.70